createdAt,value
2022-12-09T00:01:52.390Z,20.70
2022-12-09T00:04:24.906Z,37.60
2022-12-09T00:06:56.586Z,33.50
2022-12-09T00:09:28.376Z,35.30
2022-12-09T00:12:00.310Z,31.30
2022-12-09T00:14:32.260Z,21.60
2022-12-09T00:17:04.072Z,31.80
2022-12-09T00:19:36.195Z,29.90
2022-12-09T00:22:08.184Z,25.00
2022-12-09T00:24:39.988Z,30.70
2022-12-09T00:27:11.575Z,30.90
2022-12-09T00:29:44.147Z,37.20
2022-12-09T00:32:16.232Z,35.30
2022-12-09T00:34:49.117Z,32.70
2022-12-09T00:39:51.133Z,37.50
2022-12-09T00:42:22.776Z,32.70
2022-12-09T00:45:16.949Z,42.00
2022-12-09T00:47:53.150Z,37.20
2022-12-09T00:50:25.197Z,39.00
2022-12-09T00:52:57.400Z,39.00
2022-12-09T00:55:29.128Z,44.60
2022-12-09T00:58:01.201Z,38.40
2022-12-09T01:00:33.517Z,30.10
2022-12-09T01:03:05.960Z,42.90
2022-12-09T01:08:09.817Z,35.10
2022-12-09T01:10:44.253Z,35.70
2022-12-09T01:13:17.455Z,38.50
2022-12-09T01:15:49.215Z,40.60
2022-12-09T01:18:21.110Z,48.30
2022-12-09T01:21:00.074Z,38.30
2022-12-09T01:23:32.492Z,44.20
2022-12-09T01:26:06.681Z,28.50
2022-12-09T01:28:40.479Z,44.50
2022-12-09T01:31:14.835Z,44.10
2022-12-09T01:33:48.088Z,47.20
2022-12-09T01:38:52.164Z,41.50
2022-12-09T01:41:24.261Z,33.60
2022-12-09T01:44:14.829Z,43.30
2022-12-09T01:46:47.522Z,40.20
2022-12-09T01:52:02.806Z,45.90
2022-12-09T01:54:36.499Z,44.30
2022-12-09T01:57:09.028Z,43.80
2022-12-09T01:59:42.461Z,40.60
2022-12-09T02:02:19.707Z,44.30
2022-12-09T02:04:53.352Z,45.80
2022-12-09T02:07:28.286Z,46.20
2022-12-09T02:10:01.843Z,43.00
2022-12-09T02:12:51.312Z,47.00
2022-12-09T02:15:33.861Z,39.40
2022-12-09T02:18:21.292Z,44.90
2022-12-09T02:21:02.656Z,46.10
2022-12-09T02:23:43.588Z,52.10
2022-12-09T02:26:32.158Z,47.70
2022-12-09T02:29:37.903Z,46.90
2022-12-09T02:32:30.824Z,47.30
2022-12-09T02:35:07.823Z,47.70
2022-12-09T02:37:45.685Z,48.40
2022-12-09T02:40:20.655Z,41.40
2022-12-09T02:42:54.458Z,46.80
2022-12-09T02:45:29.270Z,43.50
2022-12-09T02:48:03.657Z,50.30
2022-12-09T02:50:39.042Z,48.40
2022-12-09T02:53:13.575Z,46.40
2022-12-09T02:55:49.763Z,45.90
2022-12-09T02:58:21.484Z,45.10
2022-12-09T03:00:55.723Z,45.40
2022-12-09T03:03:29.773Z,49.90
2022-12-09T03:06:06.588Z,53.60
2022-12-09T03:08:46.669Z,51.60
2022-12-09T03:11:20.165Z,49.30
2022-12-09T03:14:00.097Z,52.60
2022-12-09T03:16:34.951Z,46.30
2022-12-09T03:19:11.256Z,44.40
2022-12-09T03:21:46.856Z,46.20
2022-12-09T03:24:22.543Z,53.10
2022-12-09T03:26:55.861Z,50.20
2022-12-09T03:29:31.005Z,47.70
2022-12-09T03:32:02.960Z,53.60
2022-12-09T03:34:38.714Z,46.10
2022-12-09T03:37:12.149Z,44.50
2022-12-09T03:39:46.272Z,40.20
2022-12-09T03:42:22.634Z,45.30
2022-12-09T03:44:58.028Z,45.00
2022-12-09T03:47:30.232Z,48.90
2022-12-09T03:50:02.203Z,43.30
2022-12-09T03:52:41.536Z,42.10
2022-12-09T03:55:20.525Z,40.80
2022-12-09T03:57:58.162Z,42.60
2022-12-09T04:00:30.518Z,44.10
2022-12-09T04:03:02.251Z,47.00
2022-12-09T04:05:35.040Z,42.40
2022-12-09T04:08:07.458Z,43.60
2022-12-09T04:10:39.685Z,44.40
2022-12-09T04:13:11.452Z,50.40
2022-12-09T04:15:43.167Z,43.30
2022-12-09T04:18:14.886Z,46.50
2022-12-09T04:20:46.962Z,49.10
2022-12-09T04:23:18.775Z,32.50
2022-12-09T04:25:50.500Z,48.40
2022-12-09T04:28:22.298Z,47.40
2022-12-09T04:30:54.199Z,50.80
2022-12-09T04:33:27.001Z,49.10
2022-12-09T04:36:06.940Z,49.10
2022-12-09T04:38:39.309Z,50.40
2022-12-09T04:41:12.515Z,51.20
2022-12-09T04:43:44.622Z,47.30
2022-12-09T04:46:18.747Z,49.40
2022-12-09T04:48:50.554Z,46.30
2022-12-09T04:51:22.404Z,45.30
2022-12-09T04:53:54.197Z,56.60
2022-12-09T04:56:26.349Z,52.20
2022-12-09T04:58:58.090Z,49.00
2022-12-09T05:01:31.689Z,40.80
2022-12-09T05:04:04.248Z,53.80
2022-12-09T05:06:36.637Z,53.30
2022-12-09T05:09:11.413Z,59.80
2022-12-09T05:11:43.764Z,63.10
2022-12-09T05:14:15.910Z,72.90
2022-12-09T05:16:47.681Z,56.70
2022-12-09T05:19:19.513Z,60.10
2022-12-09T05:21:51.857Z,64.30
2022-12-09T05:24:23.779Z,67.90
2022-12-09T05:26:55.927Z,67.10
2022-12-09T05:29:27.797Z,70.60
2022-12-09T05:32:00.283Z,85.60
2022-12-09T05:34:32.865Z,88.30
2022-12-09T05:39:35.639Z,67.40
2022-12-09T05:42:08.285Z,75.00
2022-12-09T05:44:40.090Z,70.50
2022-12-09T05:47:12.445Z,65.50
2022-12-09T05:49:45.388Z,70.50
2022-12-09T05:52:17.336Z,66.10
2022-12-09T05:54:49.985Z,61.50
2022-12-09T05:57:22.081Z,68.50
2022-12-09T05:59:53.796Z,60.20
2022-12-09T06:02:25.690Z,61.10
2022-12-09T06:04:57.999Z,68.60
2022-12-09T06:07:30.283Z,60.60
2022-12-09T06:10:02.474Z,68.10
2022-12-09T06:15:09.634Z,56.60
2022-12-09T06:17:43.223Z,62.00
2022-12-09T06:20:15.812Z,58.00
2022-12-09T06:22:47.973Z,55.20
2022-12-09T06:25:20.442Z,45.50
2022-12-09T06:27:52.704Z,53.30
2022-12-09T06:30:24.697Z,53.00
2022-12-09T06:32:56.981Z,60.30
2022-12-09T06:35:28.759Z,53.40
2022-12-09T06:38:01.161Z,55.40
2022-12-09T06:40:32.944Z,62.80
2022-12-09T06:43:05.081Z,67.10
2022-12-09T06:45:38.357Z,62.70
2022-12-09T06:48:10.837Z,64.40
2022-12-09T06:50:42.834Z,56.80
2022-12-09T06:53:14.885Z,54.20
2022-12-09T06:55:46.930Z,57.30
2022-12-09T06:58:18.699Z,54.80
2022-12-09T07:00:52.443Z,41.50
2022-12-09T07:03:24.986Z,53.50
2022-12-09T07:05:57.670Z,58.20
2022-12-09T07:08:29.894Z,59.60
2022-12-09T07:11:02.765Z,57.10
2022-12-09T07:13:35.021Z,60.50
2022-12-09T07:16:07.942Z,55.70
2022-12-09T07:18:39.825Z,62.00
2022-12-09T07:21:13.450Z,60.70
2022-12-09T07:23:46.064Z,60.70
2022-12-09T07:26:18.486Z,64.00
2022-12-09T07:28:51.255Z,67.10
2022-12-09T07:31:25.899Z,63.10
2022-12-09T07:34:00.166Z,63.80
2022-12-09T07:36:33.809Z,62.40
2022-12-09T07:39:08.448Z,62.50
2022-12-09T07:41:40.692Z,69.90
2022-12-09T07:44:13.665Z,74.90
2022-12-09T07:46:45.606Z,69.30
2022-12-09T07:49:17.804Z,65.10
2022-12-09T07:51:50.159Z,70.90
2022-12-09T07:54:23.224Z,69.00
2022-12-09T07:56:55.320Z,66.50
2022-12-09T07:59:27.168Z,67.90
2022-12-09T08:02:05.495Z,38.30
2022-12-09T08:04:39.348Z,67.20
2022-12-09T08:07:13.571Z,59.20
2022-12-09T08:09:45.717Z,65.60
2022-12-09T08:12:17.726Z,68.00
2022-12-09T08:14:50.004Z,66.30
2022-12-09T08:17:23.014Z,60.20
2022-12-09T08:19:54.875Z,62.60
2022-12-09T08:22:26.796Z,45.00
2022-12-09T08:24:58.804Z,63.40
2022-12-09T08:27:31.068Z,65.50
2022-12-09T08:30:02.807Z,71.60
2022-12-09T08:32:35.134Z,68.90
2022-12-09T08:35:15.221Z,74.20
2022-12-09T08:37:47.222Z,68.30
2022-12-09T08:40:19.211Z,72.20
2022-12-09T08:42:51.304Z,77.40
2022-12-09T08:45:23.619Z,66.60
2022-12-09T08:47:55.633Z,69.50
2022-12-09T08:50:28.141Z,67.60
2022-12-09T08:53:00.314Z,74.20
2022-12-09T08:55:32.020Z,75.30
2022-12-09T08:58:04.513Z,86.20
2022-12-09T09:00:36.412Z,74.30
2022-12-09T09:03:08.569Z,68.30
2022-12-09T09:05:40.817Z,47.20
2022-12-09T09:08:13.365Z,66.40
2022-12-09T09:10:45.296Z,75.80
2022-12-09T09:13:17.124Z,63.80
2022-12-09T09:15:49.767Z,67.50
2022-12-09T09:18:22.068Z,74.90
2022-12-09T09:20:57.675Z,69.00
2022-12-09T09:23:29.451Z,73.30
2022-12-09T09:26:01.794Z,66.10
2022-12-09T09:28:34.806Z,69.00
2022-12-09T09:31:09.373Z,72.50
2022-12-09T09:33:41.703Z,75.90
2022-12-09T09:36:18.913Z,71.30
2022-12-09T09:38:52.460Z,63.80
2022-12-09T09:41:30.023Z,59.80
2022-12-09T09:44:02.916Z,67.50
2022-12-09T09:46:40.775Z,68.80
2022-12-09T09:49:18.021Z,61.10
2022-12-09T09:51:50.565Z,63.70
2022-12-09T09:54:22.768Z,70.80
2022-12-09T09:57:00.109Z,69.60
2022-12-09T09:59:45.375Z,70.00
2022-12-09T10:02:29.485Z,83.90
2022-12-09T10:05:14.471Z,76.10
2022-12-09T10:07:51.649Z,83.40
2022-12-09T10:10:37.562Z,87.10
2022-12-09T10:13:22.893Z,78.90
2022-12-09T10:16:07.366Z,76.30
2022-12-09T10:18:44.126Z,78.80
2022-12-09T10:21:20.836Z,94.40
2022-12-09T10:23:52.865Z,92.90
2022-12-09T10:26:27.583Z,98.90
2022-12-09T10:29:06.372Z,93.90
2022-12-09T10:31:38.256Z,114.80
2022-12-09T10:34:14.345Z,108.50
2022-12-09T10:36:48.719Z,83.20
2022-12-09T10:39:23.472Z,77.60
2022-12-09T10:42:16.200Z,81.00
2022-12-09T10:47:28.177Z,92.30
2022-12-09T10:50:01.038Z,83.10
2022-12-09T10:55:05.366Z,91.40
2022-12-09T10:57:37.511Z,91.40
2022-12-09T11:00:22.761Z,91.10
2022-12-09T11:02:56.816Z,99.90
2022-12-09T11:05:31.903Z,97.90
2022-12-09T11:08:05.018Z,94.80
2022-12-09T11:10:38.496Z,101.10
2022-12-09T11:13:16.009Z,100.80
2022-12-09T11:15:51.999Z,90.20
2022-12-09T11:18:27.411Z,85.80
2022-12-09T11:21:02.058Z,94.80
2022-12-09T11:23:35.596Z,89.50
2022-12-09T11:26:23.135Z,94.20
2022-12-09T11:29:05.298Z,86.20
2022-12-09T11:31:42.020Z,92.50
2022-12-09T11:34:23.073Z,87.60
2022-12-09T11:36:58.106Z,87.50
2022-12-09T11:39:32.057Z,81.30
2022-12-09T11:42:18.996Z,82.80
2022-12-09T11:44:59.327Z,80.80
2022-12-09T11:50:36.585Z,77.70
2022-12-09T11:53:18.388Z,71.90
2022-12-09T11:55:53.976Z,73.70
2022-12-09T11:58:29.614Z,70.40
2022-12-09T12:01:07.064Z,78.30
2022-12-09T12:03:41.429Z,70.00
2022-12-09T12:06:19.232Z,71.30
2022-12-09T12:08:55.963Z,75.90
2022-12-09T12:11:35.608Z,74.10
2022-12-09T12:14:16.787Z,82.90
2022-12-09T12:16:55.449Z,68.80
2022-12-09T12:19:32.004Z,77.20
2022-12-09T12:22:27.163Z,71.50
2022-12-09T12:25:20.076Z,59.70
2022-12-09T12:30:41.296Z,66.20
2022-12-09T12:36:35.521Z,66.70
2022-12-09T12:39:23.425Z,62.40
2022-12-09T12:42:19.929Z,63.80
2022-12-09T12:45:18.218Z,64.50
2022-12-09T12:48:00.184Z,62.10
2022-12-09T12:50:45.728Z,58.70
2022-12-09T12:53:32.777Z,56.50
2022-12-09T12:56:09.425Z,56.50
2022-12-09T12:58:56.597Z,52.80
2022-12-09T13:01:33.953Z,52.40
2022-12-09T13:04:16.822Z,50.30
2022-12-09T13:09:27.135Z,41.50
2022-12-09T13:12:04.052Z,56.80
2022-12-09T13:14:47.440Z,45.30
2022-12-09T13:17:26.428Z,47.80
2022-12-09T13:20:02.077Z,47.50
2022-12-09T13:22:43.199Z,50.40
2022-12-09T13:25:25.602Z,51.20
2022-12-09T13:28:05.070Z,45.80
2022-12-09T13:30:41.105Z,50.40
2022-12-09T13:33:28.469Z,49.40
2022-12-09T13:36:06.525Z,44.80
2022-12-09T13:38:40.738Z,49.10
2022-12-09T13:41:56.407Z,50.10
2022-12-09T13:44:33.401Z,50.90
2022-12-09T13:47:25.404Z,64.30
2022-12-09T13:50:05.754Z,47.40
2022-12-09T13:52:48.542Z,52.90
2022-12-09T13:55:30.422Z,56.50
2022-12-09T13:58:19.321Z,51.20
2022-12-09T14:01:05.456Z,56.40
2022-12-09T14:03:46.720Z,66.60
2022-12-09T14:06:25.940Z,60.90
2022-12-09T14:09:01.935Z,66.70
2022-12-09T14:11:51.188Z,65.10
2022-12-09T14:14:50.873Z,55.70
2022-12-09T14:17:59.976Z,55.10
2022-12-09T14:20:42.296Z,59.20
2022-12-09T14:23:19.808Z,63.60
2022-12-09T14:26:09.308Z,67.80
2022-12-09T14:28:56.949Z,62.70
2022-12-09T14:31:51.152Z,55.70
2022-12-09T14:34:38.817Z,60.70
2022-12-09T14:37:37.341Z,61.50
2022-12-09T14:40:26.280Z,47.70
2022-12-09T14:43:09.235Z,54.90
2022-12-09T14:45:51.991Z,53.50
2022-12-09T14:51:15.664Z,47.30
2022-12-09T14:53:51.352Z,47.40
2022-12-09T14:56:25.426Z,49.50
2022-12-09T14:59:01.326Z,44.10
2022-12-09T15:01:47.189Z,47.70
2022-12-09T15:04:30.553Z,47.60
2022-12-09T15:07:16.659Z,45.20
2022-12-09T15:09:53.432Z,49.00
2022-12-09T15:12:28.172Z,46.40
2022-12-09T15:15:05.180Z,47.40
2022-12-09T15:17:45.908Z,49.60
2022-12-09T15:20:30.031Z,45.40
2022-12-09T15:23:05.133Z,42.50
2022-12-09T15:25:47.065Z,44.60
2022-12-09T15:28:26.073Z,46.40
2022-12-09T15:31:01.843Z,47.40
2022-12-09T15:33:41.597Z,51.90
2022-12-09T15:36:16.933Z,49.90
2022-12-09T15:38:51.997Z,57.10
2022-12-09T15:41:42.986Z,52.50
2022-12-09T15:44:18.886Z,60.60
2022-12-09T15:46:53.230Z,59.30
2022-12-09T15:49:28.809Z,59.50
2022-12-09T15:52:04.672Z,60.20
2022-12-09T15:54:43.067Z,61.50
2022-12-09T15:57:17.982Z,65.30
2022-12-09T15:59:55.886Z,66.50
2022-12-09T16:02:30.819Z,60.40
2022-12-09T16:05:06.433Z,69.60
2022-12-09T16:07:39.143Z,62.70
2022-12-09T16:12:44.770Z,60.10
2022-12-09T16:18:11.227Z,59.00
2022-12-09T16:20:45.721Z,66.20
2022-12-09T16:23:24.784Z,65.10
2022-12-09T16:26:05.046Z,63.30
2022-12-09T16:28:39.934Z,42.50
2022-12-09T16:31:20.422Z,55.30
2022-12-09T16:33:52.757Z,61.70
2022-12-09T16:36:28.974Z,57.90
2022-12-09T16:39:42.753Z,55.20
2022-12-09T16:42:33.206Z,59.10
2022-12-09T16:45:31.443Z,53.80
2022-12-09T16:48:03.873Z,52.30
2022-12-09T16:50:37.637Z,54.40
2022-12-09T16:53:16.408Z,55.10
2022-12-09T16:55:54.592Z,45.40
2022-12-09T16:58:26.490Z,54.30
2022-12-09T17:00:59.673Z,52.00
2022-12-09T17:03:38.421Z,52.70
2022-12-09T17:06:16.900Z,80.00
2022-12-09T17:08:49.041Z,69.20
2022-12-09T17:11:21.699Z,38.30
2022-12-09T17:16:25.731Z,69.40
2022-12-09T17:18:57.471Z,75.90
2022-12-09T17:21:29.258Z,55.80
2022-12-09T17:24:00.937Z,81.30
2022-12-09T17:26:32.793Z,102.00
2022-12-09T17:29:04.991Z,74.50
2022-12-09T17:31:36.682Z,71.90
2022-12-09T17:34:08.427Z,48.60
2022-12-09T17:36:40.263Z,71.80
2022-12-09T17:39:13.224Z,69.60
2022-12-09T17:41:45.319Z,75.00
2022-12-09T17:44:17.275Z,80.20
2022-12-09T17:46:49.067Z,64.20
2022-12-09T17:49:21.653Z,66.30
2022-12-09T17:51:53.430Z,69.20
2022-12-09T17:54:25.522Z,63.40
2022-12-09T17:56:57.082Z,81.30
2022-12-09T17:59:29.042Z,87.20
2022-12-09T18:02:03.379Z,110.10
2022-12-09T18:04:35.690Z,78.30
2022-12-09T18:07:07.494Z,121.20
2022-12-09T18:09:39.399Z,106.10
2022-12-09T18:12:11.155Z,75.60
2022-12-09T18:14:42.890Z,48.20
2022-12-09T18:17:14.625Z,98.00
2022-12-09T18:19:46.375Z,67.10
2022-12-09T18:22:18.677Z,59.50
2022-12-09T18:24:50.486Z,41.80
2022-12-09T18:27:22.204Z,62.50
2022-12-09T18:29:54.289Z,50.20
2022-12-09T18:32:25.926Z,67.80
2022-12-09T18:34:57.592Z,69.50
2022-12-09T18:37:30.384Z,64.90
2022-12-09T18:40:02.237Z,58.60
2022-12-09T18:42:34.026Z,61.20
2022-12-09T18:45:07.121Z,62.90
2022-12-09T18:47:38.884Z,64.10
2022-12-09T18:50:11.650Z,58.30
2022-12-09T18:52:43.811Z,60.50
2022-12-09T18:55:15.616Z,68.30
2022-12-09T18:57:47.552Z,64.80
2022-12-09T19:00:20.257Z,69.40
2022-12-09T19:05:22.415Z,62.60
2022-12-09T19:07:54.435Z,61.30
2022-12-09T19:10:26.096Z,61.30
2022-12-09T19:13:00.042Z,55.90
2022-12-09T19:15:32.159Z,70.30
2022-12-09T19:18:03.928Z,64.50
2022-12-09T19:20:35.730Z,60.70
2022-12-09T19:23:08.872Z,73.00
2022-12-09T19:25:43.685Z,60.10
2022-12-09T19:28:17.378Z,66.00
2022-12-09T19:30:50.061Z,73.90
2022-12-09T19:33:22.018Z,64.90
2022-12-09T19:35:53.868Z,65.80
2022-12-09T19:38:25.785Z,72.50
2022-12-09T19:41:02.521Z,75.80
2022-12-09T19:43:34.574Z,76.60
2022-12-09T19:46:08.729Z,78.40
2022-12-09T19:48:43.645Z,80.40
2022-12-09T19:51:18.053Z,85.00
2022-12-09T19:53:50.486Z,86.40
2022-12-09T19:56:23.075Z,82.70
2022-12-09T19:58:55.636Z,79.70
2022-12-09T20:01:29.057Z,76.30
2022-12-09T20:04:19.167Z,83.10
2022-12-09T20:06:56.103Z,74.10
2022-12-09T20:09:29.704Z,74.10
2022-12-09T20:12:01.373Z,74.30
2022-12-09T20:14:33.071Z,73.10
2022-12-09T20:17:05.730Z,76.10
2022-12-09T20:19:38.782Z,71.70
2022-12-09T20:22:10.531Z,78.60
2022-12-09T20:24:43.145Z,81.90
2022-12-09T20:27:15.220Z,81.30
2022-12-09T20:29:48.889Z,74.80
2022-12-09T20:32:21.347Z,83.00
2022-12-09T20:34:53.629Z,83.50
2022-12-09T20:37:26.567Z,76.40
2022-12-09T20:40:00.489Z,81.60
2022-12-09T20:42:32.749Z,81.90
2022-12-09T20:45:05.525Z,77.60
2022-12-09T20:50:10.290Z,88.20
2022-12-09T20:52:42.705Z,86.40
2022-12-09T20:55:15.289Z,82.10
2022-12-09T20:57:47.131Z,83.60
2022-12-09T21:00:19.829Z,91.50
2022-12-09T21:05:22.082Z,89.20
2022-12-09T21:07:53.875Z,83.00
2022-12-09T21:10:25.828Z,81.80
2022-12-09T21:12:57.478Z,82.40
2022-12-09T21:15:30.987Z,97.10
2022-12-09T21:18:02.716Z,86.90
2022-12-09T21:20:44.081Z,92.20
2022-12-09T21:23:33.294Z,87.90
2022-12-09T21:26:08.580Z,95.50
2022-12-09T21:28:41.054Z,99.00
2022-12-09T21:31:15.109Z,96.50
2022-12-09T21:33:51.240Z,89.30
2022-12-09T21:36:25.201Z,91.70
2022-12-09T21:38:57.241Z,97.20
2022-12-09T21:41:31.700Z,93.80
2022-12-09T21:44:03.693Z,92.80
2022-12-09T21:46:38.014Z,107.00
2022-12-09T21:49:10.668Z,103.80
2022-12-09T21:54:12.650Z,102.30
2022-12-09T21:56:44.747Z,77.80
2022-12-09T21:59:16.474Z,110.30
2022-12-09T22:01:50.817Z,100.70
2022-12-09T22:04:22.747Z,99.70
2022-12-09T22:06:54.622Z,106.30
2022-12-09T22:09:26.321Z,121.80
2022-12-09T22:11:58.151Z,115.60
2022-12-09T22:14:29.793Z,112.20
2022-12-09T22:17:01.592Z,128.40
2022-12-09T22:19:33.800Z,179.30
2022-12-09T22:22:09.003Z,159.00
2022-12-09T22:24:41.380Z,177.90
2022-12-09T22:27:13.098Z,254.40
2022-12-09T22:29:45.534Z,188.20
2022-12-09T22:32:17.676Z,219.70
2022-12-09T22:34:49.443Z,239.50
2022-12-09T22:37:43.080Z,252.60
2022-12-09T22:40:14.458Z,193.30
2022-12-09T22:42:46.861Z,228.40
2022-12-09T22:45:18.751Z,206.00
2022-12-09T22:47:50.319Z,111.40
2022-12-09T22:50:21.935Z,160.30
2022-12-09T22:52:53.638Z,165.00
2022-12-09T22:55:25.230Z,139.90
2022-12-09T22:57:56.858Z,128.40
2022-12-09T23:00:29.011Z,128.50
2022-12-09T23:03:01.092Z,123.00
2022-12-09T23:05:36.279Z,122.00
2022-12-09T23:08:08.653Z,122.00
2022-12-09T23:10:41.056Z,120.90
2022-12-09T23:13:13.413Z,122.40
2022-12-09T23:15:45.242Z,135.70
2022-12-09T23:18:16.919Z,127.90
2022-12-09T23:20:48.689Z,112.00
2022-12-09T23:23:20.430Z,116.30
2022-12-09T23:25:52.583Z,128.00
2022-12-09T23:28:24.306Z,114.50
2022-12-09T23:30:56.613Z,126.30
2022-12-09T23:33:28.212Z,124.80
2022-12-09T23:35:59.883Z,125.00
2022-12-09T23:38:31.508Z,77.20
2022-12-09T23:41:03.273Z,114.60
2022-12-09T23:43:36.748Z,79.60
2022-12-09T23:46:15.440Z,112.30
2022-12-09T23:48:49.021Z,114.30
2022-12-09T23:51:23.207Z,113.80
2022-12-09T23:53:57.174Z,107.40
2022-12-09T23:56:30.567Z,108.00
2022-12-09T23:59:04.131Z,130.70
